Time;durP1;ratioP1;P1;durP2;ratioP2;P2;SDS_P1;SDS_P2;PMS_P1;PMS_P2;Temp;Humidity;BMP_temperature;BMP_pressure;BME280_temperature;BME280_humidity;BME280_pressure;Samples;Min_cycle;Max_cycle;Signal;HPM_P1;HPM_P2
2023/10/04 00:01:06;;;;;;;8.40;2.33;;;14.00;82.90;;;;;;9164658;19;20022;-71
2023/10/04 00:04:13;;;;;;;4.13;2.33;;;13.90;82.90;;;;;;9162286;19;20014;-75
2023/10/04 00:07:19;;;;;;;15.05;3.20;;;13.90;83.60;;;;;;9162134;19;20022;-75
2023/10/04 00:10:27;;;;;;;12.73;2.80;;;13.90;83.40;;;;;;9163274;19;20025;-74
2023/10/04 00:13:35;;;;;;;10.73;2.63;;;14.00;84.90;;;;;;9160855;19;20014;-73
2023/10/04 00:16:43;;;;;;;8.48;2.97;;;14.10;90.00;;;;;;9160619;19;20430;-75
2023/10/04 00:19:48;;;;;;;8.75;2.53;;;13.90;83.10;;;;;;9161606;19;20018;-74
2023/10/04 00:22:56;;;;;;;11.77;3.40;;;13.90;83.00;;;;;;9160836;19;20010;-72
2023/10/04 00:26:01;;;;;;;9.77;2.67;;;13.90;83.10;;;;;;9160505;19;20482;-73
2023/10/04 00:29:11;;;;;;;12.05;2.88;;;13.90;84.00;;;;;;9159207;19;20006;-73
2023/10/04 00:32:17;;;;;;;8.27;2.47;;;14.10;87.30;;;;;;9163166;19;20025;-70
2023/10/04 00:35:25;;;;;;;12.65;2.80;;;12.60;82.30;;;;;;9162356;19;20502;-73
2023/10/04 00:38:31;;;;;;;9.98;3.10;;;13.80;87.80;;;;;;9161995;19;20019;-72
2023/10/04 00:41:39;;;;;;;11.35;2.45;;;13.10;85.80;;;;;;9160838;19;20021;-72
2023/10/04 00:44:48;;;;;;;7.38;2.97;;;13.80;83.40;;;;;;9159300;19;20030;-73
2023/10/04 00:47:57;;;;;;;6.78;2.53;;;13.90;87.60;;;;;;9161864;19;20017;-73
2023/10/04 00:51:06;;;;;;;20.27;3.15;;;13.80;85.80;;;;;;9160818;19;20894;-71
2023/10/04 00:54:15;;;;;;;15.18;2.50;;;13.80;83.30;;;;;;9158749;19;20021;-70
2023/10/04 00:57:21;;;;;;;9.00;2.67;;;13.90;83.50;;;;;;9162075;19;20011;-72
2023/10/04 01:00:31;;;;;;;7.13;2.58;;;13.90;84.20;;;;;;9162187;19;20483;-75
2023/10/04 01:03:38;;;;;;;9.88;2.92;;;13.90;83.40;;;;;;9159385;19;20154;-72
2023/10/04 01:06:46;;;;;;;9.90;3.55;;;13.90;83.40;;;;;;9159957;19;20356;-73
2023/10/04 01:09:53;;;;;;;6.97;2.63;;;13.90;83.40;;;;;;9167899;19;20029;-70
2023/10/04 01:13:02;;;;;;;11.43;2.40;;;13.90;83.30;;;;;;9170287;19;20025;-74
2023/10/04 01:16:12;;;;;;;8.77;2.30;;;13.90;83.40;;;;;;9168753;19;20022;-75
2023/10/04 01:19:22;;;;;;;7.57;2.53;;;13.90;83.30;;;;;;9167621;19;20059;-72
2023/10/04 01:22:31;;;;;;;5.55;2.65;;;13.90;83.30;;;;;;9167739;19;20601;-73
2023/10/04 01:25:41;;;;;;;9.45;2.92;;;13.90;83.40;;;;;;9167074;19;20495;-73
2023/10/04 01:28:46;;;;;;;5.95;2.38;;;13.90;83.30;;;;;;9167855;19;20048;-72
2023/10/04 01:31:57;;;;;;;8.65;2.50;;;13.90;83.30;;;;;;9168868;19;20022;-72
2023/10/04 01:35:05;;;;;;;10.18;2.83;;;13.90;83.30;;;;;;9168262;19;20050;-73
2023/10/04 01:38:15;;;;;;;7.63;2.97;;;13.90;83.30;;;;;;9167590;19;20486;-73
2023/10/04 01:41:20;;;;;;;8.55;2.47;;;13.90;83.30;;;;;;9170923;19;20027;-71
2023/10/04 01:44:28;;;;;;;9.98;2.53;;;13.90;83.40;;;;;;9167814;19;20049;-72
2023/10/04 01:47:34;;;;;;;12.40;2.67;;;13.90;83.30;;;;;;9170539;19;20098;-73
2023/10/04 01:50:42;;;;;;;9.38;2.80;;;13.90;83.30;;;;;;9164230;19;20019;-73
2023/10/04 01:53:52;;;;;;;14.05;3.15;;;13.80;83.40;;;;;;9162992;19;20022;-71
2023/10/04 01:57:00;;;;;;;10.43;2.50;;;13.80;83.30;;;;;;9166748;19;20014;-70
2023/10/04 02:00:06;;;;;;;10.88;2.60;;;13.80;83.30;;;;;;9162724;19;20014;-74
2023/10/04 02:03:18;;;;;;;10.60;2.30;;;13.80;83.30;;;;;;9166789;19;20021;-76
2023/10/04 02:06:24;;;;;;;7.28;2.17;;;13.70;83.20;;;;;;9167795;19;20026;-71
2023/10/04 02:09:35;;;;;;;7.22;2.40;;;13.60;83.20;;;;;;9167741;19;20015;-72
2023/10/04 02:12:41;;;;;;;8.80;3.00;;;13.70;83.60;;;;;;9166874;19;20026;-73
2023/10/04 02:15:51;;;;;;;10.23;2.63;;;13.70;83.40;;;;;;9165037;19;20015;-73
2023/10/04 02:18:56;;;;;;;12.68;2.88;;;13.70;83.40;;;;;;9165674;19;20436;-70
2023/10/04 02:22:15;;;;;;;20.00;3.53;;;13.60;83.50;;;;;;9167114;19;20014;-73
2023/10/04 02:25:23;;;;;;;9.07;2.22;;;13.80;87.10;;;;;;9168380;19;20014;-72
2023/10/04 02:28:33;;;;;;;18.92;3.90;;;13.70;85.90;;;;;;9164693;19;20014;-75
2023/10/04 02:31:38;;;;;;;7.63;2.72;;;13.60;83.40;;;;;;9165715;19;20019;-71
2023/10/04 02:34:46;;;;;;;11.60;2.83;;;13.60;83.40;;;;;;9165810;19;20014;-74
2023/10/04 02:37:54;;;;;;;11.32;3.45;;;13.60;83.50;;;;;;9166543;19;20401;-72
2023/10/04 02:41:06;;;;;;;13.23;3.25;;;13.60;83.50;;;;;;9165593;19;20018;-72
2023/10/04 02:44:15;;;;;;;11.98;2.88;;;13.60;83.70;;;;;;9164341;19;20019;-73
2023/10/04 02:47:25;;;;;;;9.70;2.88;;;13.60;84.00;;;;;;9165766;19;20427;-72
2023/10/04 02:50:31;;;;;;;16.42;3.30;;;13.60;83.70;;;;;;9162306;19;20018;-73
2023/10/04 02:53:41;;;;;;;9.88;2.72;;;13.60;83.70;;;;;;9159362;19;20021;-72
2023/10/04 02:56:50;;;;;;;9.27;3.50;;;13.60;83.70;;;;;;9163489;19;20022;-69
2023/10/04 02:59:59;;;;;;;6.90;2.63;;;13.60;83.70;;;;;;9161711;19;20015;-69
2023/10/04 03:03:05;;;;;;;12.13;3.28;;;13.60;83.80;;;;;;9163137;19;20029;-73
2023/10/04 03:06:13;;;;;;;10.63;3.05;;;13.60;85.00;;;;;;9163849;19;20015;-73
2023/10/04 03:09:19;;;;;;;14.75;3.45;;;13.60;83.70;;;;;;9166894;19;20118;-71
2023/10/04 03:12:29;;;;;;;9.63;2.60;;;13.80;84.40;;;;;;9165399;19;20120;-74
2023/10/04 03:15:35;;;;;;;11.80;2.85;;;13.60;86.10;;;;;;9163039;19;20014;-69
2023/10/04 03:18:45;;;;;;;6.18;2.58;;;13.70;86.10;;;;;;9163865;19;20741;-73
2023/10/04 03:21:51;;;;;;;13.43;3.08;;;13.70;86.40;;;;;;9163201;19;20021;-69
2023/10/04 03:25:03;;;;;;;12.52;2.63;;;13.70;88.10;;;;;;9165099;19;20023;-73
2023/10/04 03:28:12;;;;;;;7.07;2.58;;;13.80;86.00;;;;;;9166570;19;20018;-72
2023/10/04 03:31:22;;;;;;;8.80;2.67;;;13.70;83.90;;;;;;9166642;19;20022;-72
2023/10/04 03:34:31;;;;;;;15.73;3.28;;;13.60;83.80;;;;;;9164694;19;20025;-73
2023/10/04 03:37:47;;;;;;;15.00;2.70;;;13.70;84.00;;;;;;9166052;19;20019;-73
2023/10/04 03:40:55;;;;;;;13.27;2.20;;;13.70;83.90;;;;;;9162518;19;20018;-70
2023/10/04 03:44:07;;;;;;;13.23;3.28;;;13.70;84.00;;;;;;9164083;19;20018;-70
2023/10/04 03:47:14;;;;;;;12.85;2.40;;;13.70;84.00;;;;;;9165180;19;20015;-70
2023/10/04 03:50:24;;;;;;;12.70;2.72;;;13.70;84.00;;;;;;9161626;19;20006;-73
2023/10/04 03:53:29;;;;;;;13.32;3.30;;;13.70;84.10;;;;;;9159537;19;20341;-73
2023/10/04 03:56:37;;;;;;;8.98;2.65;;;13.70;84.20;;;;;;9163904;19;20018;-70
2023/10/04 03:59:45;;;;;;;10.77;3.00;;;13.70;84.30;;;;;;9161839;19;20015;-73
2023/10/04 04:02:54;;;;;;;11.73;3.28;;;13.80;86.50;;;;;;9162967;19;20364;-70
2023/10/04 04:06:00;;;;;;;10.88;2.63;;;13.80;87.10;;;;;;9163375;19;20042;-70
2023/10/04 04:09:08;;;;;;;9.85;2.88;;;13.70;87.30;;;;;;9163847;19;20502;-72
2023/10/04 04:12:15;;;;;;;11.60;2.70;;;13.90;85.30;;;;;;9164185;19;20018;-73
2023/10/04 04:15:27;;;;;;;12.43;3.15;;;13.70;84.00;;;;;;9162559;19;20011;-70
2023/10/04 04:18:32;;;;;;;21.90;2.58;;;13.70;84.00;;;;;;9162587;19;20022;-74
2023/10/04 04:21:40;;;;;;;8.15;2.55;;;13.70;84.00;;;;;;9162517;19;20022;-70
2023/10/04 04:24:45;;;;;;;11.40;2.65;;;13.70;84.00;;;;;;9159796;19;20310;-69
2023/10/04 04:27:56;;;;;;;17.38;3.17;;;13.70;84.10;;;;;;9161652;19;20021;-70
2023/10/04 04:31:05;;;;;;;5.70;2.33;;;13.70;84.10;;;;;;9161114;19;20018;-72
2023/10/04 04:34:13;;;;;;;12.98;2.95;;;13.70;84.10;;;;;;9159127;19;20512;-68
2023/10/04 04:37:19;;;;;;;14.95;2.10;;;13.70;83.90;;;;;;9160450;19;20055;-68
2023/10/04 04:40:30;;;;;;;15.88;2.65;;;13.60;83.90;;;;;;9158499;19;20400;-71
2023/10/04 04:43:38;;;;;;;7.88;2.10;;;13.60;83.90;;;;;;9160809;19;20018;-70
2023/10/04 04:46:53;;;;;;;9.57;2.47;;;13.60;84.00;;;;;;9158246;19;20486;-74
2023/10/04 04:49:59;;;;;;;9.45;2.55;;;13.60;84.10;;;;;;9157781;19;20361;-73
2023/10/04 04:53:12;;;;;;;14.05;2.85;;;13.60;84.00;;;;;;9161567;19;20033;-73
2023/10/04 04:56:18;;;;;;;12.35;2.83;;;13.90;84.30;;;;;;9159711;19;20019;-71
2023/10/04 04:59:29;;;;;;;12.00;2.70;;;13.60;84.10;;;;;;9159536;19;20030;-76
2023/10/04 05:02:37;;;;;;;11.52;3.00;;;13.60;84.50;;;;;;9159087;19;20018;-72
2023/10/04 05:05:44;;;;;;;13.85;3.63;;;13.70;84.90;;;;;;9158481;19;20017;-72
2023/10/04 05:08:50;;;;;;;13.88;2.83;;;13.60;84.50;;;;;;9158185;19;20021;-74
2023/10/04 05:11:57;;;;;;;14.88;3.70;;;13.60;84.30;;;;;;9158789;19;20018;-72
2023/10/04 05:15:07;;;;;;;7.80;2.95;;;13.80;84.90;;;;;;9160180;19;20022;-70
2023/10/04 05:18:19;;;;;;;12.18;3.33;;;13.60;86.00;;;;;;9161050;19;20025;-73
2023/10/04 05:21:24;;;;;;;15.15;3.55;;;13.70;87.70;;;;;;9156691;19;20026;-72
2023/10/04 05:24:32;;;;;;;9.15;3.10;;;13.70;85.50;;;;;;9158778;19;20002;-74
2023/10/04 05:27:37;;;;;;;13.98;3.30;;;13.70;86.40;;;;;;9160634;19;20018;-73
2023/10/04 05:30:46;;;;;;;11.55;3.03;;;13.70;87.60;;;;;;9158164;19;20360;-73
2023/10/04 05:33:54;;;;;;;12.20;2.63;;;13.60;87.10;;;;;;9158082;19;20353;-74
2023/10/04 05:37:02;;;;;;;15.13;3.75;;;13.60;90.20;;;;;;9160352;19;20049;-71
2023/10/04 05:40:16;;;;;;;13.55;3.22;;;13.50;83.60;;;;;;9159618;19;20026;-73
2023/10/04 05:43:25;;;;;;;12.75;3.22;;;13.50;84.20;;;;;;9158570;19;20011;-71
2023/10/04 05:46:30;;;;;;;11.90;3.67;;;13.40;84.10;;;;;;9160542;19;20056;-71
2023/10/04 05:49:40;;;;;;;12.15;3.00;;;13.50;84.30;;;;;;9158003;19;20024;-72
2023/10/04 05:52:46;;;;;;;13.43;3.97;;;13.50;85.60;;;;;;9159410;19;20557;-72
2023/10/04 05:55:54;;;;;;;9.25;2.88;;;13.50;86.90;;;;;;9159165;19;20042;-73
2023/10/04 05:59:00;;;;;;;8.18;3.10;;;13.50;86.40;;;;;;9167643;19;20735;-74
2023/10/04 06:02:08;;;;;;;16.25;4.20;;;13.60;88.50;;;;;;9165489;19;20014;-75
2023/10/04 06:05:16;;;;;;;9.48;3.95;;;13.30;84.20;;;;;;9170144;19;20015;-75
2023/10/04 06:08:24;;;;;;;26.38;4.25;;;13.30;84.30;;;;;;9162716;19;20018;-72
2023/10/04 06:11:29;;;;;;;15.45;4.68;;;13.30;84.30;;;;;;9165864;19;20029;-74
2023/10/04 06:14:37;;;;;;;14.57;3.47;;;13.30;84.30;;;;;;9167119;19;20025;-74
2023/10/04 06:17:44;;;;;;;15.48;4.65;;;13.30;84.90;;;;;;9167837;19;20443;-73
2023/10/04 06:20:55;;;;;;;11.52;3.53;;;13.30;84.30;;;;;;9166374;19;20014;-70
2023/10/04 06:24:00;;;;;;;18.08;4.03;;;13.30;84.40;;;;;;9165989;19;20025;-75
2023/10/04 06:27:08;;;;;;;14.05;4.05;;;13.30;84.40;;;;;;9165710;19;20026;-73
2023/10/04 06:30:16;;;;;;;14.82;4.07;;;13.30;84.40;;;;;;9162051;19;20022;-71
2023/10/04 06:33:24;;;;;;;12.98;4.20;;;13.30;84.40;;;;;;9165007;19;20519;-71
2023/10/04 06:36:33;;;;;;;16.42;3.45;;;13.30;84.40;;;;;;9167881;19;20018;-72
2023/10/04 06:39:41;;;;;;;15.15;3.83;;;13.30;84.50;;;;;;9163241;19;20505;-72
2023/10/04 06:42:46;;;;;;;11.80;2.92;;;13.30;84.50;;;;;;9163032;19;21173;-73
2023/10/04 06:45:54;;;;;;;13.82;3.17;;;13.30;84.60;;;;;;9165994;19;20010;-72
2023/10/04 06:49:00;;;;;;;12.90;4.05;;;13.30;84.70;;;;;;9167150;19;20483;-72
2023/10/04 06:52:10;;;;;;;15.00;3.13;;;13.30;84.70;;;;;;9168079;19;20096;-70
2023/10/04 06:55:16;;;;;;;16.55;4.65;;;13.40;85.80;;;;;;9164263;19;20483;-72
2023/10/04 06:58:25;;;;;;;13.23;3.63;;;13.30;84.70;;;;;;9166058;19;20014;-69
2023/10/04 07:01:30;;;;;;;9.60;3.88;;;13.40;84.80;;;;;;9167260;19;20488;-71
2023/10/04 07:04:37;;;;;;;18.10;4.00;;;13.40;84.90;;;;;;9167967;19;20078;-68
2023/10/04 07:07:46;;;;;;;12.95;3.55;;;13.40;84.80;;;;;;9167817;19;20014;-68
2023/10/04 07:10:54;;;;;;;14.35;3.90;;;13.50;85.10;;;;;;9167037;19;20022;-68
2023/10/04 07:13:59;;;;;;;11.57;3.47;;;13.50;85.00;;;;;;9167967;19;20022;-68
2023/10/04 07:17:07;;;;;;;14.93;3.22;;;13.50;84.90;;;;;;9168078;19;20007;-67
2023/10/04 07:20:15;;;;;;;13.45;3.97;;;13.50;85.20;;;;;;9169073;19;20021;-67
2023/10/04 07:23:26;;;;;;;19.33;4.38;;;13.50;85.20;;;;;;9164737;19;20037;-71
2023/10/04 07:26:46;;;;;;;20.85;4.32;;;13.60;85.20;;;;;;9165533;19;20358;-68
2023/10/04 07:29:54;;;;;;;17.25;4.57;;;13.60;85.20;;;;;;9168291;19;20022;-72
2023/10/04 07:33:01;;;;;;;11.18;3.17;;;13.70;85.30;;;;;;9165627;19;20046;-70
2023/10/04 07:36:08;;;;;;;16.00;3.85;;;13.70;85.30;;;;;;9163628;19;20029;-69
2023/10/04 07:39:17;;;;;;;21.42;3.80;;;13.80;85.80;;;;;;9166367;19;20048;-69
2023/10/04 07:42:26;;;;;;;15.38;4.43;;;13.90;85.30;;;;;;9162173;19;20018;-70
2023/10/04 07:45:31;;;;;;;14.32;3.70;;;13.90;85.60;;;;;;9163455;19;20452;-72
2023/10/04 07:48:42;;;;;;;14.75;3.95;;;14.00;85.30;;;;;;9161311;19;20082;-69
2023/10/04 07:51:48;;;;;;;16.75;4.20;;;14.10;88.00;;;;;;9163292;19;20022;-67
2023/10/04 07:54:59;;;;;;;20.20;3.25;;;14.10;85.30;;;;;;9159365;19;20098;-68
2023/10/04 07:58:05;;;;;;;6.95;3.00;;;14.30;86.60;;;;;;9162739;19;20014;-66
2023/10/04 08:01:17;;;;;;;17.05;3.88;;;14.40;90.50;;;;;;9164754;19;20090;-69
2023/10/04 08:04:23;;;;;;;15.18;3.88;;;14.50;88.20;;;;;;9165754;19;20459;-69
2023/10/04 08:07:30;;;;;;;15.00;3.17;;;14.60;89.40;;;;;;9163554;19;20361;-68
2023/10/04 08:10:40;;;;;;;11.38;3.40;;;14.50;85.40;;;;;;9164621;19;20056;-66
2023/10/04 08:13:47;;;;;;;14.98;3.45;;;14.60;85.90;;;;;;9164145;19;20014;-69
2023/10/04 08:16:53;;;;;;;19.85;3.90;;;14.80;87.40;;;;;;9163389;19;20026;-68
2023/10/04 08:20:01;;;;;;;14.00;4.07;;;14.90;85.60;;;;;;9164127;19;20007;-64
2023/10/04 08:23:06;;;;;;;14.30;3.03;;;14.90;85.30;;;;;;9165148;19;20105;-71
2023/10/04 08:26:19;;;;;;;14.70;3.72;;;15.10;85.30;;;;;;9165493;19;20519;-71
2023/10/04 08:29:25;;;;;;;16.10;3.08;;;15.20;85.20;;;;;;9164595;19;20014;-69
2023/10/04 08:32:33;;;;;;;10.20;3.40;;;15.30;85.20;;;;;;9159786;19;20018;-69
2023/10/04 08:35:39;;;;;;;15.10;3.53;;;15.50;85.30;;;;;;9165433;19;20060;-70
2023/10/04 08:38:49;;;;;;;14.13;3.38;;;15.60;85.50;;;;;;9160406;19;20019;-69
2023/10/04 08:41:58;;;;;;;14.93;3.63;;;15.90;93.00;;;;;;9163661;19;20056;-70
2023/10/04 08:45:06;;;;;;;23.50;4.38;;;16.00;86.50;;;;;;9161090;19;20026;-69
2023/10/04 08:48:12;;;;;;;14.70;4.10;;;16.10;87.10;;;;;;9163540;19;20015;-70
2023/10/04 08:51:45;;;;;;;16.60;3.35;;;16.30;94.60;;;;;;9160857;19;20018;-69
2023/10/04 08:54:55;;;;;;;16.30;3.83;;;16.30;84.70;;;;;;9158606;19;20025;-69
2023/10/04 08:58:06;;;;;;;16.60;3.80;;;16.40;84.60;;;;;;9162839;19;20021;-69
2023/10/04 09:01:13;;;;;;;13.80;3.60;;;16.50;84.60;;;;;;9160608;19;20394;-68
2023/10/04 09:04:24;;;;;;;16.52;4.57;;;16.60;84.30;;;;;;9156929;19;20491;-68
2023/10/04 09:07:30;;;;;;;20.55;4.30;;;16.80;84.10;;;;;;9159935;19;20023;-69
2023/10/04 09:10:39;;;;;;;15.88;3.92;;;16.90;84.00;;;;;;9161125;19;20011;-68
2023/10/04 09:13:50;;;;;;;11.88;3.00;;;17.00;83.90;;;;;;9163050;19;20057;-69
2023/10/04 09:17:10;;;;;;;16.48;4.05;;;17.10;83.60;;;;;;9160499;19;20014;-68
2023/10/04 09:20:19;;;;;;;15.55;3.15;;;17.20;83.40;;;;;;9162162;19;20471;-68
2023/10/04 09:23:28;;;;;;;15.27;3.20;;;17.20;83.20;;;;;;9162327;19;20014;-69
2023/10/04 09:26:33;;;;;;;14.18;3.60;;;17.30;83.10;;;;;;9161449;19;20504;-68
2023/10/04 09:29:44;;;;;;;14.23;3.67;;;17.30;83.00;;;;;;9164406;19;20015;-69
2023/10/04 09:32:51;;;;;;;15.70;3.10;;;17.40;82.90;;;;;;9169941;19;20136;-68
2023/10/04 09:35:58;;;;;;;19.00;3.78;;;17.50;82.90;;;;;;9171278;19;20015;-68
2023/10/04 09:39:10;;;;;;;14.35;3.00;;;17.60;82.80;;;;;;9169572;19;20698;-68
2023/10/04 09:42:17;;;;;;;13.18;3.50;;;17.60;83.30;;;;;;9170233;19;20019;-70
2023/10/04 09:45:26;;;;;;;15.07;3.70;;;18.10;82.90;;;;;;9171225;19;20015;-68
2023/10/04 09:48:36;;;;;;;11.88;3.38;;;17.80;82.40;;;;;;9171121;19;20025;-69
2023/10/04 09:51:41;;;;;;;13.95;3.33;;;17.90;82.30;;;;;;9172732;19;20015;-69
2023/10/04 09:54:51;;;;;;;19.95;4.40;;;18.00;82.30;;;;;;9165914;19;20034;-69
2023/10/04 09:57:58;;;;;;;11.10;3.45;;;18.10;82.10;;;;;;9172320;19;20015;-69
2023/10/04 10:01:11;;;;;;;13.10;3.20;;;18.20;81.90;;;;;;9171907;19;20022;-68
2023/10/04 10:04:19;;;;;;;16.75;3.83;;;18.30;81.80;;;;;;9167870;19;20073;-68
2023/10/04 10:07:31;;;;;;;13.55;3.60;;;18.40;81.70;;;;;;9172850;19;20021;-68
2023/10/04 10:10:40;;;;;;;18.23;3.97;;;18.50;81.60;;;;;;9170544;19;20094;-69
2023/10/04 10:13:49;;;;;;;19.20;4.07;;;18.50;81.90;;;;;;9170812;19;20082;-68
2023/10/04 10:16:58;;;;;;;21.73;4.95;;;18.60;81.10;;;;;;9169777;19;20026;-68
2023/10/04 10:20:09;;;;;;;12.85;3.45;;;18.70;80.90;;;;;;9168433;19;20023;-68
2023/10/04 10:23:18;;;;;;;10.70;3.28;;;18.60;80.70;;;;;;9169882;19;20368;-68
2023/10/04 10:26:26;;;;;;;19.08;3.28;;;18.70;80.60;;;;;;9165241;19;20010;-68
2023/10/04 10:29:34;;;;;;;11.38;3.80;;;18.70;80.40;;;;;;9167119;19;20015;-68
2023/10/04 10:32:54;;;;;;;14.40;3.50;;;18.70;80.30;;;;;;9160209;19;20014;-68
2023/10/04 10:36:05;;;;;;;18.70;3.70;;;18.70;80.10;;;;;;9167287;19;20026;-68
2023/10/04 10:39:24;;;;;;;15.52;3.78;;;18.70;80.20;;;;;;9168270;19;20007;-72
2023/10/04 10:42:30;;;;;;;15.07;4.60;;;18.70;79.90;;;;;;9163394;19;20027;-73
2023/10/04 10:45:37;;;;;;;19.02;4.00;;;18.70;80.00;;;;;;9166684;19;20454;-72
2023/10/04 10:48:45;;;;;;;13.18;3.42;;;18.70;79.80;;;;;;9168548;19;20025;-71
2023/10/04 10:51:54;;;;;;;17.17;4.53;;;18.70;79.70;;;;;;9169405;19;20021;-71
2023/10/04 10:55:01;;;;;;;15.35;3.58;;;18.80;79.80;;;;;;9163682;19;20033;-70
2023/10/04 10:58:09;;;;;;;20.10;4.47;;;18.80;79.70;;;;;;9167864;19;20708;-69
2023/10/04 11:01:20;;;;;;;20.55;4.28;;;18.80;79.60;;;;;;9167107;19;20458;-71
2023/10/04 11:04:30;;;;;;;15.87;4.17;;;18.90;79.40;;;;;;9167243;19;20025;-69
2023/10/04 11:07:37;;;;;;;16.08;4.10;;;18.90;79.40;;;;;;9168352;19;20437;-69
2023/10/04 11:10:44;;;;;;;15.85;4.13;;;18.90;79.20;;;;;;9168930;19;20093;-70
2023/10/04 11:13:50;;;;;;;22.63;4.65;;;18.90;79.10;;;;;;9164236;19;20018;-69
2023/10/04 11:16:58;;;;;;;16.40;4.90;;;18.90;79.00;;;;;;9163477;19;20787;-70
2023/10/04 11:20:12;;;;;;;12.98;4.13;;;18.90;79.10;;;;;;9165323;19;20022;-70
2023/10/04 11:23:19;;;;;;;15.88;4.35;;;19.00;78.90;;;;;;9163738;19;20022;-68
2023/10/04 11:26:24;;;;;;;15.48;3.75;;;19.00;78.90;;;;;;9166471;19;20022;-70
2023/10/04 11:29:36;;;;;;;11.80;3.88;;;18.90;78.70;;;;;;9166205;19;20041;-71
2023/10/04 11:32:44;;;;;;;18.30;4.03;;;19.00;78.60;;;;;;9167713;19;20536;-69
2023/10/04 11:35:54;;;;;;;13.60;3.67;;;19.00;78.40;;;;;;9167667;19;20021;-68
2023/10/04 11:39:00;;;;;;;13.68;3.78;;;19.00;78.40;;;;;;9161686;19;20555;-68
2023/10/04 11:42:18;;;;;;;17.80;4.28;;;19.00;78.30;;;;;;9164986;19;20045;-69
2023/10/04 11:45:26;;;;;;;17.70;4.45;;;19.00;78.20;;;;;;9157499;19;20030;-70
2023/10/04 11:48:34;;;;;;;11.77;3.40;;;19.00;78.30;;;;;;9162379;19;20014;-70
2023/10/04 11:51:44;;;;;;;13.90;4.07;;;19.00;78.30;;;;;;9159538;19;20480;-69
2023/10/04 11:54:53;;;;;;;15.07;3.97;;;19.00;78.20;;;;;;9153425;19;20025;-69
2023/10/04 11:58:07;;;;;;;13.73;3.45;;;18.90;78.00;;;;;;9162459;19;20411;-69
2023/10/04 12:01:18;;;;;;;15.70;3.75;;;19.00;78.30;;;;;;9165160;19;20014;-71
2023/10/04 12:04:24;;;;;;;14.65;3.65;;;18.90;77.90;;;;;;9162998;19;20513;-69
2023/10/04 12:07:35;;;;;;;14.40;3.90;;;18.90;78.10;;;;;;9165640;19;20097;-70
2023/10/04 12:10:41;;;;;;;13.63;3.70;;;18.90;77.90;;;;;;9164290;19;20018;-70
2023/10/04 12:13:49;;;;;;;14.73;3.95;;;18.80;77.80;;;;;;9163855;19;20015;-70
2023/10/04 12:16:54;;;;;;;20.20;4.75;;;18.80;77.80;;;;;;9164909;19;20024;-70
2023/10/04 12:20:04;;;;;;;13.90;4.50;;;18.80;77.60;;;;;;9162661;19;20018;-71
2023/10/04 12:23:12;;;;;;;19.35;4.18;;;18.80;77.70;;;;;;9165076;19;20040;-70
2023/10/04 12:26:20;;;;;;;18.67;3.85;;;18.80;77.70;;;;;;9164453;19;20018;-70
2023/10/04 12:29:27;;;;;;;14.68;4.28;;;18.80;77.80;;;;;;9163469;19;20060;-70
2023/10/04 12:32:35;;;;;;;13.85;3.58;;;18.80;77.70;;;;;;9165027;19;20014;-69
2023/10/04 12:35:42;;;;;;;16.38;4.18;;;18.90;77.60;;;;;;9163742;19;20495;-71
2023/10/04 12:38:52;;;;;;;14.88;3.72;;;18.90;77.50;;;;;;9163146;19;20020;-71
2023/10/04 12:41:59;;;;;;;13.07;3.85;;;18.90;77.40;;;;;;9163146;19;20015;-71
2023/10/04 12:45:10;;;;;;;19.60;4.70;;;18.90;77.40;;;;;;9162612;19;20011;-70
2023/10/04 12:48:16;;;;;;;12.95;4.10;;;19.00;77.30;;;;;;9161795;19;20086;-70
2023/10/04 12:51:24;;;;;;;12.73;3.15;;;19.00;77.40;;;;;;9161985;19;20014;-70
2023/10/04 12:54:32;;;;;;;12.60;3.28;;;19.00;77.20;;;;;;9157279;19;20018;-69
2023/10/04 12:57:39;;;;;;;14.18;3.92;;;19.00;77.10;;;;;;9160153;19;20019;-70
2023/10/04 13:00:45;;;;;;;17.77;3.78;;;19.00;77.00;;;;;;9161817;19;20022;-70
2023/10/04 13:03:52;;;;;;;13.45;3.22;;;19.00;77.00;;;;;;9163174;19;20050;-69
2023/10/04 13:06:58;;;;;;;14.48;3.78;;;18.90;76.90;;;;;;9170601;19;20086;-69
2023/10/04 13:10:09;;;;;;;12.23;3.75;;;18.90;77.30;;;;;;9171367;19;20018;-70
2023/10/04 13:13:15;;;;;;;14.98;3.08;;;18.90;76.50;;;;;;9166617;19;20018;-70
2023/10/04 13:16:23;;;;;;;11.45;3.25;;;18.90;76.40;;;;;;9168351;19;20014;-69
2023/10/04 13:19:28;;;;;;;13.82;3.35;;;18.90;76.30;;;;;;9170052;19;20025;-70
2023/10/04 13:22:36;;;;;;;13.32;4.07;;;18.80;76.30;;;;;;9170552;19;20014;-70
2023/10/04 13:25:44;;;;;;;15.30;4.30;;;18.80;76.30;;;;;;9169911;19;20139;-69
2023/10/04 13:28:52;;;;;;;14.30;3.97;;;18.80;76.20;;;;;;9170051;19;20011;-69
2023/10/04 13:31:57;;;;;;;16.02;4.53;;;18.80;76.30;;;;;;9173749;19;20013;-69
2023/10/04 13:35:06;;;;;;;14.15;4.78;;;18.80;76.10;;;;;;9171116;19;20444;-69
2023/10/04 13:38:13;;;;;;;16.30;4.30;;;18.70;76.00;;;;;;9172677;19;20014;-69
2023/10/04 13:41:23;;;;;;;20.40;4.15;;;18.70;76.10;;;;;;9169615;19;20021;-69
2023/10/04 13:44:28;;;;;;;13.02;4.10;;;18.70;76.10;;;;;;9167035;19;20014;-69
2023/10/04 13:47:36;;;;;;;14.88;4.35;;;18.60;76.10;;;;;;9170146;19;20455;-69
2023/10/04 13:50:42;;;;;;;18.17;3.90;;;18.60;76.00;;;;;;9167793;19;20487;-69
2023/10/04 13:53:50;;;;;;;22.77;4.85;;;18.50;75.90;;;;;;9165612;19;20022;-69
2023/10/04 13:56:59;;;;;;;12.48;4.47;;;18.50;76.00;;;;;;9168673;19;20022;-69
2023/10/04 14:00:15;;;;;;;16.10;3.70;;;18.50;75.90;;;;;;9168669;19;20014;-69
2023/10/04 14:03:21;;;;;;;8.80;3.60;;;18.50;75.90;;;;;;9171480;19;20047;-69
2023/10/04 14:06:29;;;;;;;18.92;4.55;;;18.50;75.90;;;;;;9166467;19;20010;-69
2023/10/04 14:09:35;;;;;;;18.85;4.65;;;18.40;75.80;;;;;;9167645;19;20475;-69
2023/10/04 14:12:45;;;;;;;17.38;4.70;;;18.40;75.80;;;;;;9170920;19;20021;-69
2023/10/04 14:15:55;;;;;;;11.02;3.85;;;18.40;75.80;;;;;;9165806;19;20154;-70
2023/10/04 14:19:04;;;;;;;14.48;4.03;;;18.30;75.70;;;;;;9168830;19;20022;-69
2023/10/04 14:22:13;;;;;;;7.70;3.20;;;18.30;75.70;;;;;;9170476;19;20029;-70
2023/10/04 14:25:21;;;;;;;15.50;3.97;;;18.30;75.70;;;;;;9170030;19;20774;-69
2023/10/04 14:28:32;;;;;;;13.48;4.32;;;18.30;75.70;;;;;;9168286;19;20084;-69
2023/10/04 14:31:39;;;;;;;12.68;3.42;;;18.20;75.60;;;;;;9170136;19;20013;-69
2023/10/04 14:34:44;;;;;;;18.83;3.78;;;18.20;75.70;;;;;;9170488;19;20352;-69
2023/10/04 14:37:52;;;;;;;13.82;3.80;;;18.20;75.70;;;;;;9170583;19;20018;-69
2023/10/04 14:40:58;;;;;;;12.50;4.40;;;18.20;75.60;;;;;;9168340;19;20487;-69
2023/10/04 14:44:11;;;;;;;10.88;3.55;;;18.20;75.50;;;;;;9164415;19;20017;-69
2023/10/04 14:47:16;;;;;;;19.40;4.70;;;18.20;75.50;;;;;;9165141;19;20782;-69
2023/10/04 14:50:24;;;;;;;13.52;4.13;;;18.20;75.60;;;;;;9169220;19;20371;-70
2023/10/04 14:53:30;;;;;;;13.30;3.83;;;18.10;75.60;;;;;;9165312;19;20040;-68
2023/10/04 14:56:37;;;;;;;18.67;4.78;;;18.20;75.60;;;;;;9167627;19;20749;-69
2023/10/04 14:59:45;;;;;;;13.07;3.92;;;18.20;75.60;;;;;;9164962;19;20050;-69
2023/10/04 15:02:53;;;;;;;13.60;3.95;;;18.10;75.40;;;;;;9167880;19;20022;-69
2023/10/04 15:05:59;;;;;;;23.70;4.40;;;18.10;75.60;;;;;;9165032;19;20030;-69
2023/10/04 15:09:10;;;;;;;11.57;3.95;;;18.10;75.50;;;;;;9168066;19;20022;-69
2023/10/04 15:12:16;;;;;;;15.10;4.05;;;18.10;75.60;;;;;;9167598;19;20138;-67
2023/10/04 15:15:32;;;;;;;18.23;3.97;;;18.10;75.70;;;;;;9169416;19;20430;-67
2023/10/04 15:18:38;;;;;;;9.15;3.72;;;18.10;75.60;;;;;;9164204;19;20117;-68
2023/10/04 15:21:47;;;;;;;23.27;4.15;;;18.10;75.60;;;;;;9165859;19;20478;-68
2023/10/04 15:24:52;;;;;;;17.67;4.45;;;18.10;75.60;;;;;;9162612;19;20022;-68
2023/10/04 15:28:07;;;;;;;12.95;3.80;;;18.00;75.60;;;;;;9162160;19;20030;-69
2023/10/04 15:31:17;;;;;;;13.20;4.47;;;18.00;75.60;;;;;;9169647;19;20478;-68
2023/10/04 15:34:26;;;;;;;9.15;3.60;;;18.00;75.60;;;;;;9170239;19;20015;-68
2023/10/04 15:37:32;;;;;;;12.80;3.30;;;18.00;75.60;;;;;;9170845;19;20035;-68
2023/10/04 15:40:41;;;;;;;9.52;3.10;;;17.90;75.60;;;;;;9169297;19;20014;-67
2023/10/04 15:43:46;;;;;;;11.00;3.05;;;17.90;75.60;;;;;;9169481;19;20502;-68
2023/10/04 15:46:58;;;;;;;9.77;2.95;;;17.80;75.50;;;;;;9167411;19;20025;-67
2023/10/04 15:50:04;;;;;;;9.70;3.03;;;17.80;75.50;;;;;;9167582;19;20369;-68
2023/10/04 15:53:12;;;;;;;14.98;3.55;;;17.80;75.50;;;;;;9167427;19;20586;-68
2023/10/04 15:56:17;;;;;;;11.27;2.88;;;17.80;75.60;;;;;;9167657;19;20025;-68
2023/10/04 15:59:24;;;;;;;14.45;3.72;;;17.80;75.50;;;;;;9166432;19;20020;-68
2023/10/04 16:02:33;;;;;;;13.32;3.10;;;17.80;75.50;;;;;;9166177;19;20025;-68
2023/10/04 16:05:41;;;;;;;13.68;3.35;;;17.70;75.40;;;;;;9167679;19;20010;-68
2023/10/04 16:08:48;;;;;;;10.10;2.53;;;17.70;75.50;;;;;;9166773;19;20479;-67